Aérodrome :
LOGIN :

S'inscrire | Disclaimer

   EN    FR    IT 

 










Légende :    VFR   VFR Marginal   IFR   IFR Intensif   IFR Très Intensif
Visi : 
Plafond : 
>= 8 km
>= 3000ft
5 à 8 km
1000 à 3000 ft
1500m à 5 km
500 à 1000 ft
800 à 1500m
200 à 500 ft
< 800m
< 200 ft
Symboles :   Orages  Brouillard  Fortes neiges  Fortes précipitations  Vent > 20 kt
SIGMETs :   Divers  Orages  Givrage  Turbulence  Onde Orograph.  Cendres Volcan.







- Altitude de l'aérodrome : 144 ft
- Code IATA : PGF
- Voir les cartes d'approche


LFMP - Perpignan

DERNIER METAR :
  • 131630Z AUTO 08002KT CAVOK 10/02 Q1018 TEMPO RA BKN010

METARs EXPIRÉS :
  • 131600Z AUTO 00000KT 9999 FEW098 OVC140 11/M00 Q1018 TEMPO RA BKN010
  • 131530Z AUTO VRB02KT CAVOK 12/M00 Q1018 TEMPO RA BKN010
  • 131500Z AUTO VRB02KT 9999 FEW064 SCT160 BKN180 13/M01 Q1018 TEMPO RA BKN010
  • 131430Z AUTO VRB01KT 9999 BKN062 13/M01 Q1018 TEMPO RA BKN010
  • 131400Z AUTO VRB02KT 9999 BKN060 OVC074 13/M01 Q1018 TEMPO RA BKN010

TAF TAF LFMP
Valide du 13 à 15h jusqu'au 14 à 15h UTC


131400Z 1315/1415 VRB03KT CAVOK
TEMPO 1315/1409 RA BKN010
BECMG 1401/1403 28020G30KT
BECMG 1408/1410 27010KT
ATIS : +33 4 68 63 75 12
Pas de NOTAMs connus pour ce terrain.
2 SIGMETs publiés pour la FIR Marseille (LFMM) :
 
Onde orographique forte
LFMM SIGMET 4 VALID 131700/132000 LFPW
LFMM MARSEILLE FIR/UIR SEV MTW FCST E OF E00900 SFC/FL320 STNR NC=
Onde orographique forte
LFMM SIGMET 3 VALID 131300/131700 LFPW
LFMM MARSEILLE FIR/UIR SEV MTW FCST E OF E00900 SFC/FL320 STNR NC=



MET'MAP, la Météo Aéronautique d'un coup d'oeil ! - Copyright ORBIFLY Décembre 2007 - Disclaimer

ORBIFLY MET'MAP TEAM :

Programmation & Développement : Alexandra Zaïnal
Conception & Développement : Baudouin d'Aumeries
Co-Programmation & Développement : Marc-Olivier Méhu
Soutien technique & logistique : Manuel Goepfert

Contact : metmap@orbifly.com




SOURCES & CREDITS :

   NOAA